Bookmark and Share
Track history (hours):
 

Nagaleader

Last reported at 2014-Apr-23 20:33 UTC. Time now 2014-Apr-24 11:19 UTC.
Position N 26°08' E 119°35'.

Length 113 m; draft 7.1 m.

Type: Cargo ship. MMSI: 477926700.

NotesDate/timePositionNaut miles runAvg speedWind from/ knotsBaromVisibWave heightAir tempDewpointWater temp
2014-Apr-23 20:33N 26°08' E 119°35'9 9.2
2014-Apr-23 19:33N 26°00' E 119°29'0 0.2
2014-Apr-23 18:28N 26°00' E 119°29'0 0.0
2014-Apr-23 17:34N 26°00' E 119°29'0 0.1
2014-Apr-23 16:34N 26°00' E 119°29'0 0.0
2014-Apr-23 15:27N 26°00' E 119°29'0 0.0
2014-Apr-23 14:21N 26°00' E 119°29'0 0.0
2014-Apr-23 13:33N 26°00' E 119°29'0 0.0
2014-Apr-23 12:27N 26°00' E 119°29'0 0.0
2014-Apr-23 11:33N 26°00' E 119°29'0 0.0
2014-Apr-23 10:33N 26°00' E 119°29'0 0.0
2014-Apr-23 09:33N 26°00' E 119°29'0 0.0
2014-Apr-23 08:33N 26°00' E 119°29'0 0.0
2014-Apr-23 07:33N 26°00' E 119°29'0 0.1
2014-Apr-23 06:33N 26°00' E 119°29'0 0.1
2014-Apr-23 05:33N 26°00' E 119°29'0 0.1
2014-Apr-23 04:33N 26°00' E 119°29'0 0.1
2014-Apr-23 03:33N 26°00' E 119°29'0 0.0
2014-Apr-23 02:33N 26°00' E 119°29'0 0.1
2014-Apr-23 01:33N 26°00' E 119°29'0 0.1
2014-Apr-23 00:33N 26°00' E 119°29'0 0.0
2014-Apr-22 23:33N 26°00' E 119°29'0 0.0
2014-Apr-22 22:33N 26°00' E 119°29'0 0.0
2014-Apr-22 21:33N 26°00' E 119°29'0 0.0
2014-Apr-22 20:33N 26°00' E 119°29'0 0.0
2014-Apr-22 19:33N 26°00' E 119°29'0 0.0
2014-Apr-22 18:33N 26°00' E 119°29'0 0.0
2014-Apr-22 17:33N 26°00' E 119°29'6 5.9
2014-Apr-22 16:33N 26°05' E 119°32'19510.1
2014-Apr-21 21:08N 22°52' E 120°04'712.3
2014-Apr-21 20:33N 22°46' E 120°07'1212.5
2014-Apr-21 19:33N 22°35' E 120°13'6 5.5
2014-Apr-21 18:31N 22°34' E 120°19'0 0.0
2014-Apr-21 17:25N 22°34' E 120°19'0 0.0
2014-Apr-21 16:13N 22°34' E 120°19'0 0.0
2014-Apr-21 15:31N 22°34' E 120°19'0 0.0
2014-Apr-21 14:31N 22°34' E 120°19'0 0.1
2014-Apr-21 13:31N 22°34' E 120°19'1 0.2
2014-Apr-21 08:25N 22°33' E 120°20'0 0.0
2014-Apr-21 07:25N 22°33' E 120°20'0 0.0
2014-Apr-21 06:25N 22°33' E 120°20'0 0.0
2014-Apr-21 05:19N 22°33' E 120°20'0 0.0
2014-Apr-21 03:31N 22°33' E 120°20'0 0.0
2014-Apr-21 01:31N 22°33' E 120°20'4 4.2
2014-Apr-21 00:33N 22°32' E 120°16'9 8.5
2014-Apr-20 23:33N 22°38' E 120°10'21111.1
2014-Apr-20 04:33N 26°07' E 119°33'7 7.5
2014-Apr-20 03:33N 26°00' E 119°29'0 0.2
2014-Apr-20 02:31N 26°00' E 119°29'0 0.0
2014-Apr-20 01:31N 26°00' E 119°29'0 0.0
2014-Apr-20 00:31N 26°00' E 119°29'0 0.0
2014-Apr-19 23:31N 26°00' E 119°29'0 0.0
2014-Apr-19 22:31N 26°00' E 119°29'0 0.0
2014-Apr-19 21:31N 26°00' E 119°29'0 0.0
2014-Apr-19 20:31N 26°00' E 119°29'0 0.0
2014-Apr-19 19:31N 26°00' E 119°29'0 0.0
2014-Apr-19 18:31N 26°00' E 119°29'0 0.0
2014-Apr-19 17:31N 26°00' E 119°29'0 0.0
2014-Apr-19 16:31N 26°00' E 119°29'0 0.0
2014-Apr-19 15:31N 26°00' E 119°29'0 0.0
2014-Apr-19 14:25N 26°00' E 119°29'0 0.0
2014-Apr-19 13:31N 26°00' E 119°29'0 0.0
2014-Apr-19 12:19N 26°00' E 119°29'0 0.0
2014-Apr-19 11:31N 26°00' E 119°29'0 0.0
2014-Apr-19 10:31N 26°00' E 119°29'5 5.0
2014-Apr-19 09:32N 26°05' E 119°31'9 7.2
2014-Apr-19 08:18N 26°06' E 119°41'19212.1
2014-Apr-18 16:28N 22°55' E 120°03'1213.2
2014-Apr-18 15:33N 22°44' E 120°08'1212.4
2014-Apr-18 14:33N 22°33' E 120°15'5 4.8
2014-Apr-18 13:33N 22°33' E 120°20'0 0.0
2014-Apr-18 12:28N 22°33' E 120°20'0 0.0
2014-Apr-18 09:16N 22°33' E 120°20'0 0.0
2014-Apr-18 08:28N 22°33' E 120°20'0 0.0
2014-Apr-18 07:16N 22°33' E 120°20'1 1.3
2014-Apr-18 06:19N 22°34' E 120°19'0 0.0
2014-Apr-18 05:31N 22°34' E 120°19'0 0.0
2014-Apr-18 04:31N 22°34' E 120°19'0 0.0
2014-Apr-18 03:13N 22°34' E 120°19'0 0.0
2014-Apr-18 02:19N 22°34' E 120°19'0 0.0
2014-Apr-18 01:31N 22°34' E 120°19'0 0.0
2014-Apr-18 00:31N 22°34' E 120°19'4 4.4
2014-Apr-17 23:33N 22°32' E 120°15'1211.9
2014-Apr-17 22:33N 22°42' E 120°08'20510.8
2014-Apr-17 03:31N 26°06' E 119°41'8 8.3
2014-Apr-17 02:33N 26°06' E 119°32'6 6.3
2014-Apr-17 01:33N 26°00' E 119°29'0 0.0
2014-Apr-17 00:33N 26°00' E 119°29'0 0.0
2014-Apr-16 23:33N 26°00' E 119°29'0 0.1
2014-Apr-16 22:33N 26°00' E 119°29'0 0.1
2014-Apr-16 21:33N 26°00' E 119°29'0 0.0
2014-Apr-16 20:33N 26°00' E 119°29'0 0.1
2014-Apr-16 19:33N 26°00' E 119°29'0 0.1
2014-Apr-16 18:33N 26°00' E 119°29'0 0.0
2014-Apr-16 17:33N 26°00' E 119°29'0 0.0
2014-Apr-16 16:33N 26°00' E 119°29'0 0.0
2014-Apr-16 15:33N 26°00' E 119°29'0 0.0
2014-Apr-16 14:33N 26°00' E 119°29'0 0.0
2014-Apr-16 13:33N 26°00' E 119°29'0 0.0
2014-Apr-16 12:33N 26°00' E 119°29'0 0.0
2014-Apr-16 11:33N 26°00' E 119°29'0 0.0
2014-Apr-16 10:33N 26°00' E 119°29'0 0.0
2014-Apr-16 09:33N 26°00' E 119°29'0 0.0
2014-Apr-16 08:32N 26°00' E 119°29'0 0.0
2014-Apr-16 07:33N 26°00' E 119°29'0 0.0
2014-Apr-16 06:33N 26°00' E 119°29'0 0.0
2014-Apr-16 05:33N 26°00' E 119°29'0 0.0
2014-Apr-16 04:33N 26°00' E 119°29'0 0.0
2014-Apr-16 03:33N 26°00' E 119°29'0 0.0
2014-Apr-16 02:32N 26°00' E 119°29'0 0.0
2014-Apr-16 01:33N 26°00' E 119°29'0 0.0
2014-Apr-16 00:33N 26°00' E 119°29'0 0.0
2014-Apr-15 23:33N 26°00' E 119°29'0 0.0
2014-Apr-15 22:33N 26°00' E 119°29'0 0.0
2014-Apr-15 21:33N 26°00' E 119°29'0 0.0
2014-Apr-15 20:33N 26°00' E 119°29'0 0.0
2014-Apr-15 19:33N 26°00' E 119°29'0 0.0
2014-Apr-15 18:33N 26°00' E 119°29'0 0.0
2014-Apr-15 17:33N 26°00' E 119°29'0 0.0
2014-Apr-15 16:33N 26°00' E 119°29'0 0.0
2014-Apr-15 15:33N 26°00' E 119°29'0 0.0
2014-Apr-15 14:33N 26°00' E 119°29'0 0.0
2014-Apr-15 12:34N 26°00' E 119°29'0 0.0
2014-Apr-15 11:34N 26°00' E 119°29'4 4.5
2014-Apr-15 10:34N 26°04' E 119°31'55 7.8
2014-Apr-15 03:31N 25°10' E 119°40'139 8.2
2014-Apr-14 10:33N 22°53' E 120°04'1312.9
2014-Apr-14 09:33N 22°41' E 120°10'1010.1
2014-Apr-14 08:33N 22°35' E 120°18'3 2.5
2014-Apr-14 07:32N 22°33' E 120°20'0 0.0
2014-Apr-14 06:32N 22°33' E 120°20'0 0.0
2014-Apr-14 05:32N 22°33' E 120°20'0 0.0
2014-Apr-13 22:32N 22°33' E 120°20'0 0.0
2014-Apr-13 21:26N 22°33' E 120°20'  

Dump ship's entire track history

sailing weather and tide predictions

Nagaleader — VRDD5 — position and weather